Ana Sayfa
METAR-TAF:

METAR-TAF

Havaalanları :

Warrenton, Virginia, Amerika Birleşik Devletleri

Enlem: 38-35-11N, Boylam: 077-42-38W, yükseklik: 102 m

Güncel hava durumu gözlemi

Rapor saat 17:15 UTC de 18 dakika önce yapıldı.
Rüzgar batıdan 3 kt
Sıcaklık 6°C
Nem 26%
Basınç 1024 hPa
Görüş mesafesi: 16.1 km
Açık gökyüzü

METAR: KHWY 071715Z AUTO 26003KT 10SM CLR 06/M12 A3023 RMK AO2 T00641119

Saat: 12:33 (17:33 UTC)


TAF: eksik

4.000'den fazla havaalanı için hava durumu gözlemleri ve tahminleri (METAR ve TAF raporları).

Kullanılabilir istasyonlar harita üzerinde sarı ve kırmızı noktalarla gösterilir.

İstasyonun adını görmek için fareyi noktanın üzerinde gezdirin.

Sonrasında hava gözlem ve tahminlerini görmek için tıklayın.

Haritayı değiştirmek için: yaklaştırmak için siyah artı işaretli yeşil düğmeye ve uzaklaştırmak için de eksi işaretli düğmeye hızla tıklayın; bitişik haritalar için yeşil okları kullanın.


METAR-TAF: